Time;durP1;ratioP1;P1;durP2;ratioP2;P2;SDS_P1;SDS_P2;PMS_P1;PMS_P2;Temp;Humidity;BMP_temperature;BMP_pressure;BME280_temperature;BME280_humidity;BME280_pressure;Samples;Min_cycle;Max_cycle;Signal;HPM_P1;HPM_P2
2020/12/13 00:00:49;;;;;;;30.02;14.60;;;;;;;6.44;58.01;100628.28;1769854;81;21193;-77
2020/12/13 00:03:18;;;;;;;31.57;16.62;;;;;;;6.45;57.99;100621.98;1769551;81;21677;-78
2020/12/13 00:05:46;;;;;;;31.70;16.02;;;;;;;6.46;57.98;100620.55;1769610;81;21655;-80
2020/12/13 00:08:13;;;;;;;32.23;16.87;;;;;;;6.48;57.98;100627.06;1770909;81;21165;-77
2020/12/13 00:10:42;;;;;;;35.23;18.40;;;;;;;6.48;57.98;100622.58;1771300;79;21094;-77
2020/12/13 00:13:12;;;;;;;38.70;18.30;;;;;;;6.47;57.98;100631.54;1771272;81;21165;-78
2020/12/13 00:15:40;;;;;;;35.17;18.37;;;;;;;6.47;58.00;100628.04;1771254;81;21540;-77
2020/12/13 00:18:08;;;;;;;43.83;19.05;;;;;;;6.45;58.02;100627.30;1770854;81;21884;-78
2020/12/13 00:20:36;;;;;;;30.30;17.07;;;;;;;6.46;58.01;100619.22;1770755;81;21191;-78
2020/12/13 00:23:04;;;;;;;37.17;17.95;;;;;;;6.48;57.98;100620.41;1770281;79;21157;-79
2020/12/13 00:25:32;;;;;;;38.42;18.52;;;;;;;6.50;58.00;100610.01;1768950;81;21070;-79
2020/12/13 00:28:00;;;;;;;37.30;19.00;;;;;;;6.50;58.00;100607.84;1768905;81;21074;-80
2020/12/13 00:30:28;;;;;;;43.60;20.70;;;;;;;6.52;57.95;100608.05;1769481;81;21134;-79
2020/12/13 00:32:56;;;;;;;40.60;20.23;;;;;;;6.54;57.92;100612.77;1769332;81;21190;-79
2020/12/13 00:35:24;;;;;;;37.33;19.52;;;;;;;6.54;57.90;100606.13;1769699;81;21170;-78
2020/12/13 00:37:52;;;;;;;37.03;18.12;;;;;;;6.53;57.87;100608.40;1769724;81;21059;-77
2020/12/13 00:40:20;;;;;;;39.20;20.72;;;;;;;6.50;57.88;100606.02;1769749;81;21074;-80
2020/12/13 00:42:48;;;;;;;35.20;17.77;;;;;;;6.51;57.94;100606.37;1769781;81;21360;-78
2020/12/13 00:45:16;;;;;;;42.85;22.02;;;;;;;6.54;57.95;100595.94;1769657;81;21604;-80
2020/12/13 00:47:44;;;;;;;40.67;20.43;;;;;;;6.55;57.99;100601.16;1769797;81;21209;-78
2020/12/13 00:50:12;;;;;;;32.13;19.57;;;;;;;6.57;57.97;100595.20;1769786;81;21542;-78
2020/12/13 00:52:41;;;;;;;37.73;20.10;;;;;;;6.58;57.92;100595.55;1769608;81;21062;-79
2020/12/13 00:55:10;;;;;;;37.60;19.32;;;;;;;6.57;57.93;100595.69;1769731;81;22303;-79
2020/12/13 00:57:38;;;;;;;33.63;18.00;;;;;;;6.54;57.94;100592.81;1769716;81;21510;-80
2020/12/13 01:00:06;;;;;;;34.05;19.15;;;;;;;6.53;57.94;100595.58;1769601;81;21158;-78
2020/12/13 01:02:34;;;;;;;36.83;19.65;;;;;;;6.55;57.97;100594.50;1769857;81;21552;-79
2020/12/13 01:05:02;;;;;;;36.23;20.68;;;;;;;6.56;57.96;100594.84;1769739;81;21066;-78
2020/12/13 01:07:30;;;;;;;41.25;22.13;;;;;;;6.57;58.00;100601.01;1769600;81;21804;-79
2020/12/13 01:09:58;;;;;;;36.48;20.60;;;;;;;6.52;58.01;100604.06;1769676;81;21099;-80
2020/12/13 01:12:26;;;;;;;40.05;20.40;;;;;;;6.50;58.09;100599.36;1769738;81;21162;-79
2020/12/13 01:14:54;;;;;;;39.23;20.52;;;;;;;6.49;58.10;100597.66;1769637;81;21150;-77
2020/12/13 01:17:23;;;;;;;36.53;19.95;;;;;;;6.48;58.14;100609.27;1769749;81;21478;-80
2020/12/13 01:19:52;;;;;;;36.38;20.17;;;;;;;6.47;58.17;100604.09;1769732;81;21213;-78
2020/12/13 01:22:23;;;;;;;38.65;21.55;;;;;;;6.42;58.28;100595.16;1769763;81;21079;-79
2020/12/13 01:24:50;;;;;;;38.53;20.20;;;;;;;6.41;58.33;100600.63;1769730;81;21101;-78
2020/12/13 01:27:19;;;;;;;38.15;21.57;;;;;;;6.41;58.35;100598.80;1769679;81;21067;-77
2020/12/13 01:29:47;;;;;;;36.13;18.30;;;;;;;6.43;58.35;100601.33;1769691;81;21146;-78
2020/12/13 01:32:15;;;;;;;34.33;19.10;;;;;;;6.44;58.36;100597.69;1769713;81;21369;-79
2020/12/13 01:34:43;;;;;;;31.97;18.07;;;;;;;6.44;58.37;100594.53;1769608;81;21521;-79
2020/12/13 01:37:10;;;;;;;40.40;20.30;;;;;;;6.45;58.40;100593.59;1769634;81;21130;-81
2020/12/13 01:39:38;;;;;;;34.30;19.60;;;;;;;6.43;58.43;100596.84;1746216;81;21525;-79
2020/12/13 01:42:06;;;;;;;39.90;22.65;;;;;;;6.41;58.52;100596.14;1769690;81;21165;-80
2020/12/13 01:44:35;;;;;;;42.62;20.77;;;;;;;6.42;58.54;100604.48;1769450;81;22629;-79
2020/12/13 01:47:05;;;;;;;37.30;20.17;;;;;;;6.41;58.54;100605.45;1769644;81;21146;-79
2020/12/13 01:49:38;;;;;;;38.40;21.50;;;;;;;6.41;58.58;100601.47;1769644;81;21217;-79
2020/12/13 01:52:40;;;;;;;43.55;22.10;;;;;;;6.45;58.55;100606.02;1769633;81;21185;-79
2020/12/13 01:54:36;;;;;;;48.40;22.90;;;;;;;6.47;58.56;100602.77;1766584;81;21109;-78
2020/12/13 01:57:04;;;;;;;50.70;24.98;;;;;;;6.47;58.56;100602.27;1746112;81;21816;-78
2020/12/13 01:59:32;;;;;;;48.95;24.72;;;;;;;6.48;58.55;100602.63;1769820;81;21518;-78
2020/12/13 02:02:03;;;;;;;51.40;25.32;;;;;;;6.46;58.56;100605.08;1769527;81;21100;-79
2020/12/13 02:04:33;;;;;;;53.08;26.73;;;;;;;6.41;58.64;100614.77;1769829;81;21542;-76
2020/12/13 02:07:02;;;;;;;54.30;27.15;;;;;;;6.38;58.71;100611.02;1769692;81;21122;-77
2020/12/13 02:09:30;;;;;;;50.63;25.90;;;;;;;6.33;58.81;100606.58;1769807;81;21777;-80
2020/12/13 02:11:58;;;;;;;55.83;27.27;;;;;;;6.32;58.91;100611.54;1769821;81;21082;-79
2020/12/13 02:14:26;;;;;;;49.80;25.35;;;;;;;6.25;59.02;100611.19;1769790;81;21114;-79
2020/12/13 02:16:56;;;;;;;57.73;28.83;;;;;;;6.25;59.09;100611.19;1786550;79;21113;-79
2020/12/13 02:19:24;;;;;;;53.98;26.77;;;;;;;6.26;59.09;100614.69;1797107;79;21151;-79
2020/12/13 02:21:52;;;;;;;54.05;27.02;;;;;;;6.28;59.10;100614.09;1768709;81;21653;-77
2020/12/13 02:24:20;;;;;;;56.15;25.85;;;;;;;6.29;59.05;100609.97;1768606;81;21672;-77
2020/12/13 02:26:48;;;;;;;46.90;25.02;;;;;;;6.29;59.04;100620.61;1769663;81;21197;-77
2020/12/13 02:29:16;;;;;;;54.33;28.15;;;;;;;6.29;59.07;100613.12;1769863;81;21181;-79
2020/12/13 02:31:44;;;;;;;50.92;25.08;;;;;;;5.94;59.92;100618.66;1769284;81;21206;-77
2020/12/13 02:34:12;;;;;;;51.28;25.60;;;;;;;5.89;60.16;100617.66;1769462;81;21344;-77
2020/12/13 02:36:42;;;;;;;53.87;26.05;;;;;;;5.91;60.24;100618.41;1769122;81;21102;-78
2020/12/13 02:39:10;;;;;;;43.23;22.45;;;;;;;5.90;60.30;100616.69;1769837;81;21115;-78
2020/12/13 02:41:38;;;;;;;44.88;23.25;;;;;;;5.87;60.35;100622.28;1770024;81;21033;-77
2020/12/13 02:44:06;;;;;;;45.38;22.35;;;;;;;5.88;60.41;100623.11;1769845;81;21198;-77
2020/12/13 02:46:33;;;;;;;37.60;20.30;;;;;;;5.88;60.44;100627.95;1769689;81;21800;-78
2020/12/13 02:49:02;;;;;;;43.78;19.50;;;;;;;5.87;60.49;100620.10;1769781;81;21070;-77
2020/12/13 02:51:30;;;;;;;35.55;19.70;;;;;;;5.87;60.51;100616.12;1769814;81;21150;-78
2020/12/13 02:53:59;;;;;;;39.38;19.57;;;;;;;5.86;60.51;100620.59;1769777;81;21055;-77
2020/12/13 02:56:28;;;;;;;34.58;19.17;;;;;;;5.86;60.54;100623.25;1769815;81;21110;-77
2020/12/13 02:58:56;;;;;;;35.15;18.15;;;;;;;5.87;60.54;100624.09;1746312;81;21210;-77
2020/12/13 03:01:27;;;;;;;36.28;18.80;;;;;;;5.87;60.52;100632.91;1769778;81;21150;-78
2020/12/13 03:03:55;;;;;;;37.17;19.98;;;;;;;5.89;60.54;100636.27;1769914;81;21118;-77
2020/12/13 03:06:24;;;;;;;34.88;19.15;;;;;;;5.90;60.53;100634.45;1771122;79;21170;-77
2020/12/13 03:08:52;;;;;;;32.78;16.95;;;;;;;5.92;60.51;100635.23;1738387;81;21634;-78
2020/12/13 03:11:22;;;;;;;36.03;19.23;;;;;;;5.93;60.50;100644.40;1771340;79;21429;-77
2020/12/13 03:13:51;;;;;;;37.35;19.48;;;;;;;5.92;60.51;100635.23;1744333;81;21205;-77
2020/12/13 03:16:19;;;;;;;32.85;16.40;;;;;;;5.91;60.50;100637.02;1763063;81;21168;-77
2020/12/13 03:18:47;;;;;;;32.05;15.98;;;;;;;5.91;60.55;100638.34;1757422;80;21245;-79
2020/12/13 03:21:15;;;;;;;35.95;17.95;;;;;;;5.92;60.56;100645.38;1776353;79;21151;-78
2020/12/13 03:23:43;;;;;;;29.35;15.55;;;;;;;5.89;60.61;100646.91;1779509;79;21370;-77
2020/12/13 03:26:11;;;;;;;28.60;16.67;;;;;;;5.87;60.64;100639.55;1753329;80;21214;-77
2020/12/13 03:28:39;;;;;;;36.35;17.37;;;;;;;5.88;60.66;100643.89;1771451;81;21070;-78
2020/12/13 03:31:07;;;;;;;28.17;14.90;;;;;;;5.89;60.66;100653.55;1771406;81;21189;-76
2020/12/13 03:33:35;;;;;;;28.75;16.00;;;;;;;5.82;60.73;100646.57;1771319;81;21122;-78
2020/12/13 03:36:03;;;;;;;34.33;16.07;;;;;;;6.02;60.42;100642.33;1771514;81;21843;-79
2020/12/13 03:38:31;;;;;;;33.05;16.62;;;;;;;6.27;59.79;100637.68;1771365;81;21629;-78
2020/12/13 03:40:59;;;;;;;37.42;16.75;;;;;;;6.31;59.59;100641.30;1771437;79;21066;-78
2020/12/13 03:43:27;;;;;;;27.05;15.35;;;;;;;6.35;59.47;100644.52;1771589;81;21592;-78
2020/12/13 03:45:55;;;;;;;31.90;15.13;;;;;;;6.38;59.34;100645.61;1771299;81;21125;-78
2020/12/13 03:48:23;;;;;;;29.12;14.60;;;;;;;6.40;59.24;100644.98;1771465;81;22473;-77
2020/12/13 03:50:51;;;;;;;31.45;16.02;;;;;;;6.40;59.20;100648.97;1771386;81;21514;-78
2020/12/13 03:53:19;;;;;;;29.32;14.40;;;;;;;6.42;59.18;100649.70;1771391;81;21046;-78
2020/12/13 03:55:48;;;;;;;23.22;13.10;;;;;;;6.46;59.12;100652.48;1771498;81;21195;-76
2020/12/13 03:58:17;;;;;;;26.97;13.68;;;;;;;6.51;58.99;100656.93;1771292;81;21173;-77
2020/12/13 04:00:45;;;;;;;29.70;16.52;;;;;;;6.53;58.93;100658.96;1771442;81;21436;-77
2020/12/13 04:03:13;;;;;;;26.50;14.63;;;;;;;6.51;58.89;100647.61;1771274;81;21164;-79
2020/12/13 04:05:42;;;;;;;26.55;14.15;;;;;;;6.48;58.90;100647.86;1771479;81;21071;-78
2020/12/13 04:08:11;;;;;;;29.80;14.73;;;;;;;6.60;58.65;100650.00;1771322;81;21607;-78
2020/12/13 04:10:39;;;;;;;37.13;17.90;;;;;;;6.62;58.61;100654.70;1771464;81;21046;-78
2020/12/13 04:13:08;;;;;;;33.20;16.80;;;;;;;6.55;58.67;100651.72;1771487;81;21425;-78
2020/12/13 04:15:37;;;;;;;20.92;11.43;;;;;;;6.41;58.98;100645.86;1771258;81;21114;-78
2020/12/13 04:18:05;;;;;;;23.40;13.68;;;;;;;6.38;59.08;100653.59;1769815;81;21180;-79
2020/12/13 04:20:33;;;;;;;29.92;14.83;;;;;;;6.36;59.10;100651.56;1769562;81;21681;-79
2020/12/13 04:23:01;;;;;;;30.32;16.62;;;;;;;6.37;59.10;100652.39;1769485;81;21184;-78
2020/12/13 04:25:29;;;;;;;31.80;17.30;;;;;;;6.32;59.21;100647.45;1769674;81;21226;-79
2020/12/13 04:27:57;;;;;;;38.15;19.12;;;;;;;6.43;59.01;100642.08;1769547;81;21679;-79
2020/12/13 04:30:25;;;;;;;40.48;18.90;;;;;;;6.51;58.88;100639.63;1769594;81;21206;-78
2020/12/13 04:32:53;;;;;;;33.28;16.15;;;;;;;6.52;58.78;100650.63;1770687;81;21078;-81
2020/12/13 04:35:21;;;;;;;35.63;17.85;;;;;;;6.47;58.79;100640.02;1771389;81;21055;-77
2020/12/13 04:37:49;;;;;;;37.33;18.50;;;;;;;6.47;58.84;100636.86;1771425;81;21191;-79
2020/12/13 04:40:17;;;;;;;29.75;18.65;;;;;;;6.51;58.84;100642.78;1771405;81;21126;-77
2020/12/13 04:42:46;;;;;;;45.95;23.07;;;;;;;6.55;58.79;100642.40;1771304;81;21157;-77
2020/12/13 04:45:14;;;;;;;42.53;23.02;;;;;;;6.59;58.71;100639.84;1747905;81;21160;-77
2020/12/13 04:48:02;;;;;;;47.40;20.90;;;;;;;6.58;58.69;100643.45;1771583;81;21079;-75
2020/12/13 04:50:33;;;;;;;34.05;18.65;;;;;;;6.61;58.65;100646.36;1771487;79;22117;-77
2020/12/13 04:53:07;;;;;;;41.65;20.68;;;;;;;6.58;58.63;100643.94;1771423;81;21126;-78
2020/12/13 04:55:54;;;;;;;52.20;24.90;;;;;;;6.59;58.66;100650.48;1771508;81;21160;-79
2020/12/13 04:58:24;;;;;;;44.85;24.47;;;;;;;6.50;58.85;100655.73;1771191;80;21501;-79
2020/12/13 05:00:57;;;;;;;53.90;26.37;;;;;;;6.27;59.37;100655.81;1771824;81;21104;-79
2020/12/13 05:03:26;;;;;;;45.38;21.00;;;;;;;6.42;59.11;100659.02;1771498;81;21362;-79
2020/12/13 05:06:01;;;;;;;41.02;20.95;;;;;;;6.15;59.72;100654.63;1771435;81;21145;-81
2020/12/13 05:08:29;;;;;;;42.48;21.33;;;;;;;6.01;59.98;100664.57;1771440;81;21072;-78
2020/12/13 05:10:58;;;;;;;46.95;24.35;;;;;;;5.99;60.15;100664.32;1771434;81;21149;-77
2020/12/13 05:13:26;;;;;;;45.85;23.95;;;;;;;5.99;60.24;100661.66;1771330;81;21126;-76
2020/12/13 05:15:54;;;;;;;52.88;24.50;;;;;;;6.01;60.23;100655.75;1771355;81;21137;-79
2020/12/13 05:18:23;;;;;;;35.33;18.90;;;;;;;6.03;60.23;100666.61;1770443;81;21098;-76
2020/12/13 05:20:51;;;;;;;47.70;21.95;;;;;;;6.06;60.18;100659.73;1770821;79;21177;-77
2020/12/13 05:23:19;;;;;;;42.90;21.15;;;;;;;6.09;60.12;100660.81;1769567;81;21206;-77
2020/12/13 05:25:49;;;;;;;42.90;23.22;;;;;;;6.13;60.07;100655.23;1769260;81;21196;-78
2020/12/13 05:28:16;;;;;;;45.63;24.63;;;;;;;6.03;60.29;100651.14;1769217;81;21382;-79
2020/12/13 05:30:46;;;;;;;55.33;24.65;;;;;;;6.04;60.29;100651.04;1745722;81;21193;-78
2020/12/13 05:33:37;;;;;;;47.73;25.10;;;;;;;6.05;60.27;100650.55;1768731;81;21211;-78
2020/12/13 05:36:06;;;;;;;42.78;21.93;;;;;;;6.49;59.27;100650.87;1769505;81;21632;-78
2020/12/13 05:38:36;;;;;;;45.00;22.27;;;;;;;6.56;58.99;100652.06;1769667;81;21188;-79
2020/12/13 05:41:05;;;;;;;48.17;24.25;;;;;;;6.60;58.85;100653.99;1770102;81;22277;-78
2020/12/13 05:43:44;;;;;;;50.70;26.70;;;;;;;6.41;59.21;100653.84;1769547;81;21418;-79
2020/12/13 05:49:22;;;;;;;53.50;26.75;;;;;;;6.34;59.51;100650.82;1770639;81;21192;-78
2020/12/13 05:51:39;;;;;;;49.93;26.65;;;;;;;6.34;59.55;100645.50;1767435;81;21063;-78
2020/12/13 05:54:32;;;;;;;56.68;25.25;;;;;;;6.70;58.66;100646.08;1771405;81;21789;-78
2020/12/13 05:56:41;;;;;;;51.18;25.40;;;;;;;6.72;58.50;100642.33;1767683;81;21081;-78
2020/12/13 05:59:09;;;;;;;45.73;27.73;;;;;;;6.75;58.41;100657.18;1770028;81;21145;-78
2020/12/13 06:01:38;;;;;;;54.80;27.00;;;;;;;6.72;58.37;100657.42;1746145;81;21241;-79
2020/12/13 06:04:10;;;;;;;52.27;27.77;;;;;;;6.71;58.39;100655.75;1723050;81;21516;-79
2020/12/13 06:06:43;;;;;;;44.30;23.25;;;;;;;6.63;58.54;100652.88;1770284;79;22050;-78
2020/12/13 06:09:14;;;;;;;45.73;23.57;;;;;;;6.61;58.58;100649.02;1770626;81;21183;-78
2020/12/13 06:11:49;;;;;;;51.85;25.62;;;;;;;6.61;58.59;100648.53;1769889;81;21173;-77
2020/12/13 06:14:22;;;;;;;46.77;24.75;;;;;;;6.60;58.60;100651.33;1770309;81;21584;-78
2020/12/13 06:16:50;;;;;;;47.20;24.95;;;;;;;6.60;58.65;100655.33;1771368;81;21066;-77
2020/12/13 06:19:22;;;;;;;47.03;27.85;;;;;;;6.63;58.62;100651.55;1770253;81;21205;-78
2020/12/13 06:21:50;;;;;;;50.60;26.65;;;;;;;6.53;58.78;100648.31;1771128;79;21466;-78
2020/12/13 06:24:18;;;;;;;40.85;22.48;;;;;;;6.52;58.83;100657.77;1770423;81;21102;-77
2020/12/13 06:26:46;;;;;;;45.50;22.73;;;;;;;6.52;58.86;100655.11;1783692;79;21036;-78
2020/12/13 06:29:15;;;;;;;43.15;24.72;;;;;;;6.53;58.86;100648.31;1768606;81;21565;-78
2020/12/13 06:31:43;;;;;;;45.05;26.20;;;;;;;6.51;58.86;100650.27;1766904;79;21374;-78
2020/12/13 06:34:11;;;;;;;46.00;23.98;;;;;;;6.56;58.83;100647.23;1732621;80;21176;-78
2020/12/13 06:36:39;;;;;;;49.73;25.68;;;;;;;6.31;59.35;100653.72;1775754;80;21169;-79
2020/12/13 06:39:17;;;;;;;45.58;26.25;;;;;;;6.16;59.79;100643.86;1770455;79;21516;-78
2020/12/13 06:41:51;;;;;;;38.30;21.40;;;;;;;6.10;59.96;100645.21;1767250;79;21180;-78
2020/12/13 06:44:19;;;;;;;45.98;22.75;;;;;;;6.43;59.25;100646.56;1770056;79;21166;-78
2020/12/13 06:46:48;;;;;;;39.48;21.95;;;;;;;6.55;59.00;100650.87;1764231;80;21190;-80
2020/12/13 06:49:17;;;;;;;39.95;24.50;;;;;;;6.60;58.89;100649.51;1784204;79;21154;-78
2020/12/13 06:51:47;;;;;;;48.78;24.10;;;;;;;6.64;58.75;100644.78;1781604;79;21205;-78
2020/12/13 06:54:18;;;;;;;47.67;24.95;;;;;;;6.31;59.45;100648.40;1783566;79;21189;-78
2020/12/13 06:56:48;;;;;;;49.03;24.63;;;;;;;6.23;59.69;100655.70;1782312;79;21481;-78
2020/12/13 06:59:19;;;;;;;37.00;20.02;;;;;;;6.21;59.76;100652.80;1758017;80;21202;-79
2020/12/13 07:01:47;;;;;;;34.20;20.45;;;;;;;6.18;59.79;100662.38;1754107;80;21189;-78
2020/12/13 07:04:39;;;;;;;35.52;21.65;;;;;;;6.16;59.88;100660.30;1749839;80;21178;-79
2020/12/13 07:07:16;;;;;;;42.60;24.60;;;;;;;5.77;60.67;100665.19;1753795;80;21198;-80
2020/12/13 07:09:41;;;;;;;40.98;24.50;;;;;;;6.23;59.92;100659.69;1749279;80;22441;-80
2020/12/13 07:12:10;;;;;;;42.75;24.77;;;;;;;6.45;59.19;100656.12;1749036;80;21174;-80
2020/12/13 07:14:39;;;;;;;31.75;17.55;;;;;;;6.48;59.01;100653.18;1706031;82;21205;-78
2020/12/13 07:17:09;;;;;;;39.03;21.70;;;;;;;6.51;58.97;100657.42;1718211;80;21230;-78
2020/12/13 07:19:41;;;;;;;39.35;23.15;;;;;;;6.56;58.79;100658.72;1746306;82;21199;-77
2020/12/13 07:22:12;;;;;;;38.67;23.35;;;;;;;6.19;59.69;100655.59;1774551;79;21425;-77
2020/12/13 07:24:43;;;;;;;44.25;24.52;;;;;;;6.26;59.65;100660.75;1774442;79;21186;-78
2020/12/13 07:27:11;;;;;;;44.77;25.40;;;;;;;6.20;59.84;100657.77;1785011;79;21182;-78
2020/12/13 07:29:39;;;;;;;43.60;24.23;;;;;;;6.45;59.30;100656.12;1778285;79;21189;-78
2020/12/13 07:32:07;;;;;;;35.50;20.88;;;;;;;6.27;59.64;100650.49;1783879;79;21657;-77
2020/12/13 07:34:36;;;;;;;33.38;19.82;;;;;;;6.54;58.92;100655.81;1781101;79;21218;-78
2020/12/13 07:37:03;;;;;;;43.87;23.32;;;;;;;6.58;58.79;100653.26;1759011;80;21115;-78
2020/12/13 07:39:31;;;;;;;38.17;23.52;;;;;;;6.63;58.71;100658.20;1771666;80;21102;-78
2020/12/13 07:41:59;;;;;;;44.13;24.75;;;;;;;6.65;58.60;100654.94;1766048;79;21181;-78
2020/12/13 07:44:36;;;;;;;48.98;33.10;;;;;;;6.54;58.89;100648.70;1805784;77;27908;-77
2020/12/13 07:47:05;;;;;;;43.52;25.12;;;;;;;6.42;59.08;100655.52;1776950;80;21169;-78
2020/12/13 07:49:34;;;;;;;38.58;19.35;;;;;;;6.37;59.20;100652.39;1767081;80;21894;-78
2020/12/13 07:52:02;;;;;;;29.85;16.65;;;;;;;6.31;59.27;100660.37;1769799;80;21206;-78
2020/12/13 07:54:30;;;;;;;32.63;20.12;;;;;;;6.30;59.25;100666.18;1788655;79;21732;-78
2020/12/13 07:57:00;;;;;;;42.73;23.25;;;;;;;6.28;59.35;100672.13;1810524;77;21192;-78
2020/12/13 07:59:29;;;;;;;38.10;23.38;;;;;;;6.29;59.29;100662.33;1772101;80;21210;-78
2020/12/13 08:01:58;;;;;;;43.15;22.30;;;;;;;6.28;59.27;100666.80;1767947;80;22530;-77
2020/12/13 08:04:34;;;;;;;32.40;19.95;;;;;;;6.26;59.30;100673.20;1776998;80;21038;-79
2020/12/13 08:07:14;;;;;;;28.83;16.15;;;;;;;6.43;58.75;100671.34;1776086;80;21153;-79
2020/12/13 08:09:42;;;;;;;30.60;18.17;;;;;;;6.35;58.90;100669.80;1783010;79;21204;-78
2020/12/13 08:12:11;;;;;;;31.15;19.70;;;;;;;6.15;59.37;100669.27;1788502;79;21148;-79
2020/12/13 08:14:39;;;;;;;40.15;21.02;;;;;;;6.15;59.46;100673.25;1770613;81;21269;-79
2020/12/13 08:17:07;;;;;;;35.17;20.80;;;;;;;6.17;59.50;100668.64;1793430;79;21173;-79
2020/12/13 08:19:49;;;;;;;29.85;18.50;;;;;;;6.20;59.43;100671.06;1796108;79;21168;-78
2020/12/13 08:22:28;;;;;;;35.13;20.02;;;;;;;6.22;59.27;100671.31;1796216;79;21160;-78
2020/12/13 08:25:04;;;;;;;25.52;15.32;;;;;;;6.16;59.31;100670.45;1776778;80;21058;-77
2020/12/13 08:27:36;;;;;;;32.42;16.85;;;;;;;6.15;59.42;100674.58;1797803;79;22147;-77
2020/12/13 08:30:04;;;;;;;30.12;19.05;;;;;;;6.16;59.41;100665.14;1781857;78;21191;-77
2020/12/13 08:32:36;;;;;;;37.73;21.05;;;;;;;6.54;58.57;100667.33;1765123;81;21169;-79
2020/12/13 08:35:15;;;;;;;31.50;18.37;;;;;;;6.63;58.31;100663.52;1765617;81;21160;-77
2020/12/13 08:37:54;;;;;;;34.48;18.65;;;;;;;6.65;58.22;100663.77;1768414;78;21698;-78
2020/12/13 08:40:40;;;;;;;29.55;16.23;;;;;;;6.68;58.11;100662.19;1779560;78;21362;-77
2020/12/13 08:43:19;;;;;;;35.48;19.15;;;;;;;6.70;58.03;100662.05;1766935;79;21168;-77
2020/12/13 08:45:54;;;;;;;32.38;17.98;;;;;;;6.69;58.02;100654.55;1774121;80;21110;-78
2020/12/13 08:48:25;;;;;;;38.42;21.15;;;;;;;6.72;58.00;100654.77;1788679;79;21653;-78
2020/12/13 08:51:07;;;;;;;32.08;19.70;;;;;;;6.69;58.01;100652.38;1782416;79;21719;-78
2020/12/13 08:53:35;;;;;;;35.45;19.90;;;;;;;6.67;58.03;100655.16;1781176;80;22644;-79
2020/12/13 08:56:11;;;;;;;25.12;13.32;;;;;;;6.51;58.20;100650.77;1755504;80;21236;-78
2020/12/13 08:58:52;;;;;;;22.65;12.28;;;;;;;6.61;57.97;100652.52;1787481;79;21192;-78
2020/12/13 09:01:27;;;;;;;28.10;16.65;;;;;;;6.63;57.90;100652.88;1796334;79;21192;-78
2020/12/13 09:03:54;;;;;;;25.02;14.85;;;;;;;6.62;57.84;100653.36;1795652;79;21176;-77
2020/12/13 09:06:31;;;;;;;29.75;17.00;;;;;;;6.60;57.80;100648.67;1796182;79;22555;-77
2020/12/13 09:09:13;;;;;;;29.23;16.95;;;;;;;6.56;57.86;100645.91;1796932;79;21606;-77
2020/12/13 09:11:42;;;;;;;23.30;12.60;;;;;;;6.54;57.85;100652.70;1796368;79;21212;-78
2020/12/13 09:14:10;;;;;;;27.62;10.70;;;;;;;6.50;57.82;100659.23;1783282;79;21240;-78
2020/12/13 09:16:38;;;;;;;23.77;14.47;;;;;;;6.43;57.95;100660.70;1787828;78;21193;-78
2020/12/13 09:19:12;;;;;;;21.07;12.60;;;;;;;6.40;58.06;100670.75;1776908;78;21945;-77
2020/12/13 09:21:56;;;;;;;24.47;14.68;;;;;;;6.35;58.10;100654.67;1781842;79;21640;-77
2020/12/13 09:24:32;;;;;;;22.13;13.78;;;;;;;6.34;58.16;100657.47;1786814;79;21149;-80
2020/12/13 09:27:07;;;;;;;23.38;12.58;;;;;;;6.34;58.19;100660.13;1785951;79;21157;-79
2020/12/13 09:29:36;;;;;;;20.85;11.48;;;;;;;6.27;58.22;100654.97;1787673;79;21137;-79
2020/12/13 09:32:04;;;;;;;20.90;11.33;;;;;;;6.23;58.39;100649.05;1785406;79;21330;-77
2020/12/13 09:34:32;;;;;;;23.20;12.82;;;;;;;5.87;59.34;100636.89;1775268;80;21184;-79
2020/12/13 09:37:00;;;;;;;25.40;14.25;;;;;;;5.85;59.53;100636.16;1784728;79;21161;-78
2020/12/13 09:39:30;;;;;;;23.52;13.98;;;;;;;5.86;59.67;100632.55;1774505;80;21205;-78
2020/12/13 09:41:58;;;;;;;20.70;12.82;;;;;;;5.85;59.68;100632.17;1769723;80;21165;-78
2020/12/13 09:44:27;;;;;;;19.37;11.00;;;;;;;5.84;59.77;100628.67;1768980;80;21363;-77
2020/12/13 09:46:55;;;;;;;19.30;9.85;;;;;;;6.21;59.00;100629.70;1776014;80;21478;-77
2020/12/13 09:49:25;;;;;;;19.07;11.73;;;;;;;6.34;58.65;100632.20;1803308;79;21162;-78
2020/12/13 09:51:58;;;;;;;21.23;13.28;;;;;;;6.38;58.53;100634.97;1821730;77;21164;-78
2020/12/13 09:54:28;;;;;;;24.70;13.13;;;;;;;6.41;58.37;100629.41;1767148;80;21155;-78
2020/12/13 09:56:57;;;;;;;22.05;13.93;;;;;;;6.44;58.30;100623.80;1773265;80;22523;-79
2020/12/13 09:59:26;;;;;;;22.20;12.53;;;;;;;6.47;58.24;100615.58;1775120;80;21150;-79
2020/12/13 10:01:54;;;;;;;19.55;12.37;;;;;;;6.49;58.13;100614.95;1773918;80;21517;-79
2020/12/13 10:04:23;;;;;;;18.77;12.03;;;;;;;6.49;58.04;100626.08;1772765;80;21197;-79
2020/12/13 10:07:12;;;;;;;22.55;14.03;;;;;;;6.42;57.96;100612.95;1770889;80;21129;-78
2020/12/13 10:09:25;;;;;;;22.62;14.15;;;;;;;6.33;58.16;100618.05;1799202;78;21633;-78
2020/12/13 10:11:53;;;;;;;23.80;14.40;;;;;;;6.31;58.18;100627.12;1771128;79;21186;-78
2020/12/13 10:14:22;;;;;;;21.80;13.83;;;;;;;6.24;58.34;100619.30;1795498;78;21193;-78
2020/12/13 10:16:50;;;;;;;21.97;12.03;;;;;;;6.23;58.43;100618.46;1773796;79;21229;-78
2020/12/13 10:19:18;;;;;;;22.67;11.33;;;;;;;6.26;58.44;100618.67;1804448;79;21170;-79
2020/12/13 10:21:46;;;;;;;20.75;13.58;;;;;;;6.30;58.40;100618.78;1766217;80;22075;-79
2020/12/13 10:24:14;;;;;;;21.82;13.53;;;;;;;6.34;58.34;100617.56;1774400;80;21182;-77
2020/12/13 10:26:43;;;;;;;24.77;14.15;;;;;;;6.38;58.34;100617.67;1766239;80;21214;-79
2020/12/13 10:29:11;;;;;;;26.55;15.48;;;;;;;6.41;58.29;100621.42;1771350;80;21238;-79
2020/12/13 10:31:41;;;;;;;24.30;13.15;;;;;;;6.43;58.12;100626.11;1773535;80;21568;-78
2020/12/13 10:34:11;;;;;;;21.82;11.45;;;;;;;6.40;58.15;100612.22;1801398;79;21371;-79
2020/12/13 10:36:39;;;;;;;22.73;12.68;;;;;;;6.39;58.16;100603.39;1775539;80;20991;-78
2020/12/13 10:39:08;;;;;;;20.77;12.30;;;;;;;6.34;58.29;100598.94;1765121;80;21186;-78
2020/12/13 10:41:38;;;;;;;22.13;13.60;;;;;;;6.06;59.08;100595.91;1780089;79;21175;-79
2020/12/13 10:44:05;;;;;;;25.08;15.08;;;;;;;6.13;58.98;100601.55;1809016;79;21183;-78
2020/12/13 10:46:34;;;;;;;25.30;14.98;;;;;;;6.04;59.18;100591.67;1784266;80;21174;-77
2020/12/13 10:49:02;;;;;;;24.27;14.23;;;;;;;6.02;59.22;100603.77;1796049;79;21126;-78
2020/12/13 10:51:30;;;;;;;20.77;12.18;;;;;;;6.00;59.23;100600.41;1810919;77;21212;-78
2020/12/13 10:53:58;;;;;;;21.35;13.55;;;;;;;6.04;59.16;100602.30;1786462;79;21137;-78
2020/12/13 10:56:26;;;;;;;22.42;13.32;;;;;;;6.22;58.86;100605.27;1817815;77;21181;-78
2020/12/13 10:58:55;;;;;;;27.40;16.40;;;;;;;6.15;58.77;100601.45;1779469;80;21390;-76
2020/12/13 11:01:23;;;;;;;25.55;16.65;;;;;;;5.99;59.10;100611.14;1782904;80;21692;-77
2020/12/13 11:03:51;;;;;;;26.65;17.57;;;;;;;6.02;59.05;100606.43;1808432;79;21714;-79
2020/12/13 11:06:19;;;;;;;30.08;16.93;;;;;;;6.28;58.61;100598.13;1760226;79;21193;-78
2020/12/13 11:08:47;;;;;;;22.55;12.98;;;;;;;6.44;58.23;100601.67;1804618;79;21153;-77
2020/12/13 11:11:15;;;;;;;19.30;12.20;;;;;;;6.48;58.07;100599.96;1764934;80;21322;-77
2020/12/13 11:13:43;;;;;;;25.70;14.63;;;;;;;6.50;57.93;100606.02;1736886;79;21013;-79
2020/12/13 11:16:11;;;;;;;22.70;14.87;;;;;;;6.48;57.96;100606.61;1791142;79;21125;-80
2020/12/13 11:18:40;;;;;;;24.67;15.40;;;;;;;6.13;58.75;100599.37;1773428;79;21290;-78
2020/12/13 11:21:08;;;;;;;30.17;16.05;;;;;;;6.05;58.96;100600.87;1798067;77;21149;-78
2020/12/13 11:23:36;;;;;;;26.35;16.82;;;;;;;6.03;59.08;100606.78;1763481;79;21300;-79
2020/12/13 11:26:07;;;;;;;22.25;13.00;;;;;;;6.03;59.13;100601.46;1797508;79;21591;-79
2020/12/13 11:28:35;;;;;;;19.92;12.07;;;;;;;6.28;58.62;100595.47;1779586;80;21158;-78
2020/12/13 11:31:03;;;;;;;21.80;11.93;;;;;;;6.16;58.79;100601.80;1779985;80;21182;-78